createdAt,value
2023-04-16T00:00:32.240Z,0.40
2023-04-16T00:02:59.563Z,0.47
2023-04-16T00:05:27.352Z,0.68
2023-04-16T00:07:54.388Z,0.70
2023-04-16T00:10:21.448Z,0.80
2023-04-16T00:12:48.419Z,0.40
2023-04-16T00:15:15.390Z,0.90
2023-04-16T00:17:42.333Z,0.55
2023-04-16T00:20:10.188Z,0.40
2023-04-16T00:22:37.460Z,0.77
2023-04-16T00:25:04.965Z,0.60
2023-04-16T00:27:31.961Z,0.43
2023-04-16T00:29:59.155Z,0.80
2023-04-16T00:32:26.119Z,0.77
2023-04-16T00:34:53.207Z,0.52
2023-04-16T00:37:20.220Z,0.63
2023-04-16T00:39:47.227Z,0.73
2023-04-16T00:42:16.118Z,0.80
2023-04-16T00:44:43.142Z,0.90
2023-04-16T00:47:10.410Z,0.95
2023-04-16T00:49:37.691Z,0.93
2023-04-16T00:52:04.955Z,0.73
2023-04-16T00:54:34.667Z,1.02
2023-04-16T00:57:03.018Z,1.10
2023-04-16T00:59:31.221Z,1.27
2023-04-16T01:01:58.354Z,0.98
2023-04-16T01:04:26.252Z,0.82
2023-04-16T01:06:53.847Z,0.95
2023-04-16T01:09:20.995Z,0.90
2023-04-16T01:11:47.954Z,1.65
2023-04-16T01:14:15.077Z,1.40
2023-04-16T01:16:42.046Z,2.40
2023-04-16T01:19:09.293Z,1.70
2023-04-16T01:21:36.368Z,1.10
2023-04-16T01:24:06.903Z,1.08
2023-04-16T01:26:38.946Z,1.00
2023-04-16T01:29:06.548Z,1.65
2023-04-16T01:31:33.836Z,3.08
2023-04-16T01:34:09.190Z,1.35
2023-04-16T01:36:36.498Z,1.77
2023-04-16T01:39:04.429Z,1.90
2023-04-16T01:41:32.110Z,1.92
2023-04-16T01:43:59.114Z,1.63
2023-04-16T01:46:32.675Z,1.50
2023-04-16T01:48:59.902Z,1.83
2023-04-16T01:51:27.415Z,1.70
2023-04-16T01:53:55.418Z,1.58
2023-04-16T01:56:22.793Z,1.30
2023-04-16T01:58:50.258Z,1.88
2023-04-16T02:01:19.062Z,1.10
2023-04-16T02:03:47.752Z,1.80
2023-04-16T02:06:15.808Z,1.83
2023-04-16T02:08:45.923Z,1.30
2023-04-16T02:11:16.003Z,2.08
2023-04-16T02:13:43.735Z,1.17
2023-04-16T02:16:13.276Z,1.55
2023-04-16T02:18:52.291Z,1.70
2023-04-16T02:21:21.866Z,1.45
2023-04-16T02:23:51.960Z,1.85
2023-04-16T02:28:51.110Z,1.50
2023-04-16T02:31:22.872Z,1.85
2023-04-16T02:33:50.065Z,1.98
2023-04-16T02:36:17.099Z,2.08
2023-04-16T02:38:44.036Z,1.80
2023-04-16T02:41:11.101Z,1.73
2023-04-16T02:43:38.280Z,1.60
2023-04-16T02:46:05.371Z,1.63
2023-04-16T02:48:32.821Z,2.10
2023-04-16T02:50:59.958Z,1.90
2023-04-16T02:53:27.063Z,1.60
2023-04-16T02:55:55.661Z,1.90
2023-04-16T02:58:25.408Z,2.63
2023-04-16T03:00:54.294Z,2.70
2023-04-16T03:03:21.940Z,2.60
2023-04-16T03:05:49.162Z,2.47
2023-04-16T03:08:16.755Z,3.83
2023-04-16T03:10:43.908Z,3.92
2023-04-16T03:13:10.897Z,3.28
2023-04-16T03:15:38.091Z,4.05
2023-04-16T03:18:05.074Z,3.30
2023-04-16T03:20:32.394Z,3.38
2023-04-16T03:22:59.430Z,3.65
2023-04-16T03:25:26.477Z,3.85
2023-04-16T03:27:53.364Z,3.65
2023-04-16T03:30:20.428Z,3.55
2023-04-16T03:32:47.753Z,3.30
2023-04-16T03:35:15.705Z,3.25
2023-04-16T03:37:42.787Z,4.15
2023-04-16T03:40:10.315Z,2.80
2023-04-16T03:42:37.940Z,3.20
2023-04-16T03:45:06.555Z,3.70
2023-04-16T03:47:33.515Z,3.35
2023-04-16T03:50:03.572Z,3.20
2023-04-16T03:52:30.932Z,3.47
2023-04-16T03:54:57.981Z,3.85
2023-04-16T03:57:27.772Z,4.45
2023-04-16T03:59:59.928Z,3.05
2023-04-16T04:02:31.377Z,4.20
2023-04-16T04:04:59.622Z,4.70
2023-04-16T04:07:26.669Z,4.53
2023-04-16T04:09:53.836Z,3.40
2023-04-16T04:12:21.206Z,3.17
2023-04-16T04:14:48.506Z,3.38
2023-04-16T04:17:15.577Z,3.58
2023-04-16T04:19:54.262Z,3.42
2023-04-16T04:22:28.952Z,4.15
2023-04-16T04:24:55.946Z,4.00
2023-04-16T04:27:23.371Z,3.50
2023-04-16T04:29:50.660Z,3.22
2023-04-16T04:32:18.016Z,3.00
2023-04-16T04:34:45.960Z,3.67
2023-04-16T04:37:13.006Z,3.90
2023-04-16T04:39:40.018Z,3.90
2023-04-16T04:42:07.251Z,3.42
2023-04-16T04:44:34.276Z,4.28
2023-04-16T04:47:01.339Z,3.72
2023-04-16T04:49:28.363Z,4.20
2023-04-16T04:51:55.607Z,4.25
2023-04-16T04:54:24.367Z,3.67
2023-04-16T04:56:53.246Z,3.35
2023-04-16T04:59:21.700Z,3.70
2023-04-16T05:01:49.970Z,4.47
2023-04-16T05:04:17.630Z,4.68
2023-04-16T05:06:44.827Z,3.97
2023-04-16T05:09:12.001Z,3.67
2023-04-16T05:11:41.534Z,4.15
2023-04-16T05:14:08.692Z,4.40
2023-04-16T05:16:39.068Z,3.78
2023-04-16T05:19:06.135Z,4.25
2023-04-16T05:21:33.956Z,4.18
2023-04-16T05:24:00.878Z,4.57
2023-04-16T05:26:27.941Z,3.72
2023-04-16T05:28:56.697Z,4.57
2023-04-16T05:31:24.166Z,4.70
2023-04-16T05:33:51.282Z,4.43
2023-04-16T05:36:18.257Z,4.78
2023-04-16T05:38:45.317Z,5.13
2023-04-16T05:41:12.463Z,4.40
2023-04-16T05:43:39.582Z,4.28
2023-04-16T05:46:06.612Z,3.92
2023-04-16T05:48:33.588Z,3.00
2023-04-16T05:51:02.274Z,3.47
2023-04-16T05:53:29.267Z,3.33
2023-04-16T05:55:56.365Z,2.75
2023-04-16T05:58:24.045Z,3.33
2023-04-16T06:00:52.282Z,3.60
2023-04-16T06:03:19.342Z,3.72
2023-04-16T06:05:46.410Z,3.55
2023-04-16T06:08:13.507Z,4.45
2023-04-16T06:10:40.713Z,4.40
2023-04-16T06:13:07.682Z,4.32
2023-04-16T06:15:34.600Z,4.30
2023-04-16T06:18:01.632Z,4.90
2023-04-16T06:20:28.831Z,5.28
2023-04-16T06:22:56.281Z,4.70
2023-04-16T06:25:23.549Z,4.93
2023-04-16T06:27:50.623Z,5.53
2023-04-16T06:30:17.814Z,6.10
2023-04-16T06:32:44.964Z,4.50
2023-04-16T06:35:12.533Z,5.32
2023-04-16T06:37:39.488Z,4.97
2023-04-16T06:40:07.249Z,5.63
2023-04-16T06:42:34.267Z,5.18
2023-04-16T06:45:01.640Z,6.55
2023-04-16T06:47:28.664Z,5.30
2023-04-16T06:49:55.620Z,5.32
2023-04-16T06:52:22.647Z,5.80
2023-04-16T06:54:49.606Z,4.90
2023-04-16T06:57:17.590Z,5.28
2023-04-16T06:59:44.906Z,4.80
2023-04-16T07:02:12.176Z,4.53
2023-04-16T07:04:39.167Z,4.55
2023-04-16T07:07:06.184Z,4.40
2023-04-16T07:09:33.171Z,4.15
2023-04-16T07:12:00.269Z,4.72
2023-04-16T07:14:27.475Z,5.43
2023-04-16T07:16:54.590Z,4.53
2023-04-16T07:19:21.763Z,4.80
2023-04-16T07:21:52.592Z,4.22
2023-04-16T07:24:20.055Z,4.10
2023-04-16T07:26:47.338Z,4.18
2023-04-16T07:29:14.843Z,3.80
2023-04-16T07:31:42.231Z,5.28
2023-04-16T07:34:09.556Z,4.22
2023-04-16T07:36:36.552Z,5.00
2023-04-16T07:39:05.789Z,3.90
2023-04-16T07:41:33.456Z,4.10
2023-04-16T07:44:00.629Z,3.60
2023-04-16T07:46:33.310Z,3.65
2023-04-16T07:49:10.625Z,7.97
2023-04-16T07:51:37.770Z,4.20
2023-04-16T07:54:04.750Z,3.10
2023-04-16T07:56:32.065Z,2.35
2023-04-16T07:59:07.932Z,3.63
2023-04-16T08:01:42.017Z,3.20
2023-04-16T08:04:09.572Z,2.83
2023-04-16T08:06:36.983Z,4.60
2023-04-16T08:09:04.103Z,1.88
2023-04-16T08:11:31.138Z,3.40
2023-04-16T08:13:58.113Z,3.38
2023-04-16T08:16:25.290Z,3.25
2023-04-16T08:18:52.659Z,2.95
2023-04-16T08:21:19.760Z,4.32
2023-04-16T08:23:46.822Z,3.15
2023-04-16T08:26:14.035Z,4.90
2023-04-16T08:28:41.309Z,2.78
2023-04-16T08:31:08.952Z,3.60
2023-04-16T08:33:36.234Z,3.40
2023-04-16T08:36:03.536Z,4.70
2023-04-16T08:38:30.668Z,3.88
2023-04-16T08:41:03.654Z,3.83
2023-04-16T08:43:34.434Z,4.78
2023-04-16T08:46:07.516Z,5.78
2023-04-16T08:48:35.970Z,5.05
2023-04-16T08:51:03.186Z,5.65
2023-04-16T08:53:44.137Z,5.38
2023-04-16T08:56:14.454Z,4.72
2023-04-16T08:58:42.483Z,5.20
2023-04-16T09:01:11.416Z,3.75
2023-04-16T09:03:38.874Z,3.55
2023-04-16T09:06:07.719Z,3.13
2023-04-16T09:08:36.153Z,2.30
2023-04-16T09:11:04.300Z,3.03
2023-04-16T09:13:34.610Z,1.85
2023-04-16T09:16:01.966Z,1.70
2023-04-16T09:18:29.337Z,1.80
2023-04-16T09:20:57.491Z,1.80
2023-04-16T09:23:25.174Z,2.03
2023-04-16T09:25:52.180Z,1.30
2023-04-16T09:28:46.486Z,1.70
2023-04-16T09:31:18.461Z,1.75
2023-04-16T09:34:07.779Z,2.15
2023-04-16T09:36:36.915Z,1.73
2023-04-16T09:39:04.480Z,2.25
2023-04-16T09:41:36.045Z,1.40
2023-04-16T09:44:05.427Z,0.93
2023-04-16T09:46:45.280Z,0.93
2023-04-16T09:49:17.727Z,1.13
2023-04-16T09:51:48.062Z,1.25
2023-04-16T09:54:15.689Z,1.33
2023-04-16T09:56:46.106Z,1.63
2023-04-16T09:59:20.492Z,0.90
2023-04-16T10:01:49.654Z,1.48
2023-04-16T10:04:21.910Z,1.30
2023-04-16T10:07:07.370Z,1.25
2023-04-16T10:09:38.768Z,0.70
2023-04-16T10:12:07.079Z,0.50
2023-04-16T10:14:34.997Z,0.52
2023-04-16T10:17:04.660Z,1.10
2023-04-16T10:19:32.679Z,0.90
2023-04-16T10:22:00.035Z,0.60
2023-04-16T10:24:28.814Z,1.30
2023-04-16T10:26:56.426Z,3.13
2023-04-16T10:29:24.917Z,0.93
2023-04-16T10:31:53.838Z,0.82
2023-04-16T10:34:22.219Z,0.82
2023-04-16T10:36:52.951Z,0.57
2023-04-16T10:39:25.224Z,0.73
2023-04-16T10:42:11.891Z,0.98
2023-04-16T10:44:44.984Z,0.95
2023-04-16T10:47:14.308Z,0.70
2023-04-16T10:49:43.631Z,0.57
2023-04-16T10:52:13.913Z,1.50
2023-04-16T10:54:41.423Z,0.70
2023-04-16T10:57:16.295Z,0.75
2023-04-16T10:59:44.550Z,2.08
2023-04-16T11:02:19.420Z,1.33
2023-04-16T11:04:49.513Z,1.83
2023-04-16T11:07:19.669Z,1.70
2023-04-16T11:10:05.399Z,0.70
2023-04-16T11:12:32.785Z,0.65
2023-04-16T11:15:06.476Z,1.23
2023-04-16T11:17:41.771Z,1.10
2023-04-16T11:20:19.073Z,0.93
2023-04-16T11:22:48.723Z,1.05
2023-04-16T11:25:31.925Z,0.80
2023-04-16T11:27:59.339Z,1.23
2023-04-16T11:30:34.138Z,0.90
2023-04-16T11:33:12.036Z,1.00
2023-04-16T11:35:41.413Z,1.05
2023-04-16T11:38:08.783Z,0.70
2023-04-16T11:40:36.422Z,0.75
2023-04-16T11:43:14.320Z,1.00
2023-04-16T11:45:59.784Z,0.90
2023-04-16T11:48:46.912Z,1.67
2023-04-16T11:51:14.472Z,0.98
2023-04-16T11:53:56.187Z,0.50
2023-04-16T11:56:29.571Z,0.82
2023-04-16T11:59:29.109Z,0.80
2023-04-16T12:01:56.475Z,0.82
2023-04-16T12:04:27.015Z,1.00
2023-04-16T12:07:13.716Z,1.38
2023-04-16T12:09:44.690Z,1.02
2023-04-16T12:12:32.415Z,0.70
2023-04-16T12:15:04.728Z,0.50
2023-04-16T12:17:34.325Z,0.65
2023-04-16T12:20:07.939Z,0.63
2023-04-16T12:22:40.938Z,1.27
2023-04-16T12:25:12.786Z,1.52
2023-04-16T12:27:43.586Z,0.73
2023-04-16T12:30:11.396Z,1.20
2023-04-16T12:32:38.889Z,0.80
2023-04-16T12:35:06.432Z,0.60
2023-04-16T12:37:33.566Z,1.27
2023-04-16T12:40:05.782Z,0.95
2023-04-16T12:42:37.232Z,0.88
2023-04-16T12:45:06.118Z,0.55
2023-04-16T12:47:33.412Z,0.50
2023-04-16T12:50:01.804Z,0.73
2023-04-16T12:52:40.224Z,0.65
2023-04-16T12:55:07.811Z,0.40
2023-04-16T12:57:35.165Z,0.47
2023-04-16T13:00:02.365Z,0.43
2023-04-16T13:02:29.744Z,0.38
2023-04-16T13:04:57.015Z,0.70
2023-04-16T13:07:26.617Z,0.60
2023-04-16T13:09:53.952Z,0.20
2023-04-16T13:12:21.029Z,0.55
2023-04-16T13:14:47.973Z,0.50
2023-04-16T13:17:16.259Z,0.25
2023-04-16T13:19:43.386Z,0.30
2023-04-16T13:22:10.489Z,0.35
2023-04-16T13:24:38.126Z,0.30
2023-04-16T13:27:06.037Z,0.70
2023-04-16T13:29:33.701Z,0.60
2023-04-16T13:32:01.161Z,0.45
2023-04-16T13:34:28.335Z,0.28
2023-04-16T13:37:03.939Z,0.20
2023-04-16T13:39:31.063Z,0.70
2023-04-16T13:41:58.433Z,0.50
2023-04-16T13:44:25.594Z,0.47
2023-04-16T13:46:53.298Z,0.63
2023-04-16T13:49:20.349Z,0.60
2023-04-16T13:51:47.460Z,0.40
2023-04-16T13:54:14.423Z,0.40
2023-04-16T13:56:41.569Z,0.80
2023-04-16T13:59:09.018Z,2.35
2023-04-16T14:01:36.321Z,1.27
2023-04-16T14:04:06.944Z,0.30
2023-04-16T14:06:34.943Z,0.17
2023-04-16T14:09:02.551Z,0.20
2023-04-16T14:11:29.883Z,0.20
2023-04-16T14:13:56.888Z,0.20
2023-04-16T14:16:24.013Z,0.20
2023-04-16T14:18:52.107Z,0.28
2023-04-16T14:21:19.337Z,0.20
2023-04-16T14:23:46.820Z,0.55
2023-04-16T14:26:14.393Z,0.10
2023-04-16T14:28:42.124Z,0.10
2023-04-16T14:31:10.480Z,0.30
2023-04-16T14:33:37.657Z,0.50
2023-04-16T14:36:05.384Z,0.52
2023-04-16T14:38:32.630Z,0.20
2023-04-16T14:41:00.665Z,0.20
2023-04-16T14:43:28.466Z,0.10
2023-04-16T14:45:59.082Z,0.10
2023-04-16T14:48:26.310Z,0.10
2023-04-16T14:50:53.795Z,0.20
2023-04-16T14:53:20.929Z,0.05
2023-04-16T14:55:48.005Z,0.10
2023-04-16T14:58:15.705Z,0.10
2023-04-16T15:00:42.996Z,0.10
2023-04-16T15:03:10.586Z,0.10
2023-04-16T15:05:37.979Z,0.10
2023-04-16T15:08:06.285Z,0.10
2023-04-16T15:10:33.426Z,0.10
2023-04-16T15:13:00.673Z,0.00
2023-04-16T15:15:27.784Z,0.00
2023-04-16T15:17:57.012Z,0.10
2023-04-16T15:20:24.606Z,0.10
2023-04-16T15:22:53.493Z,0.00
2023-04-16T15:25:20.630Z,0.00
2023-04-16T15:27:47.635Z,0.00
2023-04-16T15:30:14.918Z,0.00
2023-04-16T15:32:45.059Z,0.10
2023-04-16T15:35:20.029Z,0.32
2023-04-16T15:37:52.342Z,0.00
2023-04-16T15:40:20.596Z,0.00
2023-04-16T15:42:51.905Z,0.00
2023-04-16T15:45:19.135Z,0.08
2023-04-16T15:47:51.094Z,0.10
2023-04-16T15:50:19.845Z,0.15
2023-04-16T15:52:47.798Z,0.30
2023-04-16T15:55:17.617Z,0.10
2023-04-16T15:57:45.023Z,0.08
2023-04-16T16:00:18.985Z,0.00
2023-04-16T16:02:47.313Z,0.00
2023-04-16T16:05:18.345Z,0.10
2023-04-16T16:07:45.666Z,0.10
2023-04-16T16:10:13.599Z,0.10
2023-04-16T16:12:41.096Z,0.10
2023-04-16T16:15:09.244Z,0.10
2023-04-16T16:17:39.534Z,0.10
2023-04-16T16:20:10.524Z,0.08
2023-04-16T16:22:38.398Z,0.10
2023-04-16T16:25:07.758Z,0.20
2023-04-16T16:27:36.366Z,0.00
2023-04-16T16:30:08.748Z,0.00
2023-04-16T16:32:40.963Z,0.20
2023-04-16T16:35:11.728Z,0.10
2023-04-16T16:37:38.848Z,0.00
2023-04-16T16:40:07.692Z,0.10
2023-04-16T16:42:35.278Z,0.10
2023-04-16T16:45:06.289Z,0.10
2023-04-16T16:47:33.495Z,0.20
2023-04-16T16:50:02.753Z,0.10
2023-04-16T16:52:31.346Z,0.20
2023-04-16T16:54:58.371Z,0.00
2023-04-16T16:57:25.745Z,0.00
2023-04-16T16:59:54.441Z,0.00
2023-04-16T17:02:21.909Z,0.10
2023-04-16T17:04:48.955Z,0.00
2023-04-16T17:07:15.997Z,0.00
2023-04-16T17:09:43.080Z,0.00
2023-04-16T17:12:13.640Z,0.00
2023-04-16T17:14:41.166Z,0.00
2023-04-16T17:17:08.089Z,0.00
2023-04-16T17:19:35.394Z,0.00
2023-04-16T17:22:03.333Z,0.00
2023-04-16T17:24:32.586Z,0.00
2023-04-16T17:27:00.039Z,0.13
2023-04-16T17:29:28.156Z,0.10
2023-04-16T17:31:55.773Z,0.20
2023-04-16T17:34:23.479Z,0.10
2023-04-16T17:36:50.784Z,0.05
2023-04-16T17:39:18.246Z,0.10
2023-04-16T17:41:46.816Z,0.10
2023-04-16T17:44:14.505Z,0.38
2023-04-16T17:46:41.632Z,3.58
2023-04-16T17:49:08.623Z,3.00
2023-04-16T17:51:35.624Z,1.67
2023-04-16T17:54:03.501Z,0.45
2023-04-16T17:56:30.463Z,0.10
2023-04-16T17:58:57.649Z,0.30
2023-04-16T18:01:25.781Z,0.10
2023-04-16T18:03:53.550Z,0.00
2023-04-16T18:06:21.449Z,0.00
2023-04-16T18:08:49.083Z,0.20
2023-04-16T18:11:16.214Z,0.00
2023-04-16T18:13:43.683Z,0.00
2023-04-16T18:16:16.630Z,0.00
2023-04-16T18:18:45.863Z,0.00
2023-04-16T18:21:13.019Z,0.00
2023-04-16T18:23:40.089Z,0.00
2023-04-16T18:26:18.226Z,0.00
2023-04-16T18:28:47.438Z,0.00
2023-04-16T18:31:14.523Z,0.08
2023-04-16T18:33:55.779Z,0.00
2023-04-16T18:36:26.669Z,0.00
2023-04-16T18:39:00.807Z,0.00
2023-04-16T18:41:29.877Z,0.15
2023-04-16T18:43:57.375Z,0.10
2023-04-16T18:46:25.561Z,0.20
2023-04-16T18:48:52.626Z,0.30
2023-04-16T18:51:19.602Z,0.20
2023-04-16T18:53:46.709Z,0.45
2023-04-16T18:56:13.811Z,0.22
2023-04-16T18:58:40.786Z,1.33
2023-04-16T19:01:11.479Z,1.08
2023-04-16T19:03:39.280Z,0.88
2023-04-16T19:06:07.281Z,2.03
2023-04-16T19:08:34.691Z,0.95
2023-04-16T19:11:02.242Z,1.00
2023-04-16T19:13:30.527Z,0.80
2023-04-16T19:16:02.068Z,1.35
2023-04-16T19:18:29.310Z,1.33
2023-04-16T19:21:03.652Z,1.10
2023-04-16T19:23:31.246Z,1.00
2023-04-16T19:25:59.385Z,1.42
2023-04-16T19:28:26.703Z,1.25
2023-04-16T19:30:55.016Z,1.30
2023-04-16T19:33:22.365Z,0.80
2023-04-16T19:35:52.206Z,1.27
2023-04-16T19:38:20.204Z,1.38
2023-04-16T19:40:48.881Z,1.27
2023-04-16T19:43:15.960Z,1.08
2023-04-16T19:45:45.446Z,1.00
2023-04-16T19:48:13.042Z,0.77
2023-04-16T19:50:41.329Z,1.05
2023-04-16T19:53:09.010Z,1.30
2023-04-16T19:55:37.105Z,1.08
2023-04-16T19:58:08.391Z,1.00
2023-04-16T20:00:43.175Z,0.90
2023-04-16T20:03:10.457Z,1.23
2023-04-16T20:05:42.005Z,1.20
2023-04-16T20:08:09.297Z,2.28
2023-04-16T20:10:36.284Z,1.40
2023-04-16T20:13:03.342Z,1.05
2023-04-16T20:15:30.306Z,1.15
2023-04-16T20:17:59.747Z,0.73
2023-04-16T20:20:26.796Z,0.82
2023-04-16T20:22:55.436Z,1.00
2023-04-16T20:25:22.658Z,0.57
2023-04-16T20:27:51.820Z,0.50
2023-04-16T20:30:19.333Z,0.80
2023-04-16T20:32:46.384Z,0.52
2023-04-16T20:35:13.407Z,0.40
2023-04-16T20:37:42.299Z,0.30
2023-04-16T20:40:10.987Z,0.68
2023-04-16T20:42:38.234Z,0.40
2023-04-16T20:45:06.058Z,0.30
2023-04-16T20:47:35.859Z,0.20
2023-04-16T20:50:03.932Z,0.20
2023-04-16T20:52:30.980Z,0.30
2023-04-16T20:54:58.048Z,0.20
2023-04-16T20:57:25.884Z,0.50
2023-04-16T20:59:53.614Z,0.50
2023-04-16T21:02:23.722Z,0.30
2023-04-16T21:04:51.177Z,0.20
2023-04-16T21:07:18.610Z,0.30
2023-04-16T21:09:47.095Z,0.32
2023-04-16T21:12:14.105Z,0.20
2023-04-16T21:14:41.214Z,0.20
2023-04-16T21:17:09.589Z,0.20
2023-04-16T21:19:36.653Z,0.40
2023-04-16T21:22:03.697Z,0.68
2023-04-16T21:24:32.301Z,0.20
2023-04-16T21:27:09.605Z,0.30
2023-04-16T21:29:40.906Z,0.30
2023-04-16T21:32:07.988Z,0.20
2023-04-16T21:34:34.978Z,0.50
2023-04-16T21:37:02.032Z,0.20
2023-04-16T21:39:31.063Z,0.22
2023-04-16T21:41:58.128Z,0.52
2023-04-16T21:44:25.339Z,0.30
2023-04-16T21:46:52.454Z,0.40
2023-04-16T21:49:19.692Z,0.50
2023-04-16T21:51:46.681Z,0.47
2023-04-16T21:54:13.712Z,0.70
2023-04-16T21:56:40.802Z,0.68
2023-04-16T21:59:07.825Z,1.08
2023-04-16T22:01:36.159Z,0.40
2023-04-16T22:04:04.022Z,0.70
2023-04-16T22:06:31.276Z,0.63
2023-04-16T22:08:59.595Z,0.77
2023-04-16T22:11:26.521Z,0.85
2023-04-16T22:13:57.744Z,0.80
2023-04-16T22:16:25.027Z,0.77
2023-04-16T22:18:52.092Z,0.68
2023-04-16T22:21:19.138Z,0.52
2023-04-16T22:23:46.728Z,0.80
2023-04-16T22:26:13.896Z,0.70
2023-04-16T22:28:40.853Z,0.95
2023-04-16T22:31:08.520Z,0.80
2023-04-16T22:33:35.622Z,0.60
2023-04-16T22:36:02.699Z,1.25
2023-04-16T22:38:29.656Z,0.80
2023-04-16T22:40:56.642Z,1.02
2023-04-16T22:43:23.723Z,1.13
2023-04-16T22:46:01.047Z,1.08
2023-04-16T22:48:28.409Z,0.90
2023-04-16T22:50:55.327Z,1.08
2023-04-16T22:53:22.304Z,1.17
2023-04-16T22:55:49.208Z,1.33
2023-04-16T22:58:17.104Z,1.52
2023-04-16T23:00:44.334Z,0.95
2023-04-16T23:03:11.733Z,1.25
2023-04-16T23:05:38.742Z,1.00
2023-04-16T23:08:06.516Z,1.42
2023-04-16T23:10:33.744Z,1.15
2023-04-16T23:13:00.838Z,1.60
2023-04-16T23:15:28.008Z,1.65
2023-04-16T23:17:54.976Z,1.40
2023-04-16T23:20:22.683Z,1.48
2023-04-16T23:22:49.715Z,1.33
2023-04-16T23:25:18.201Z,2.35
2023-04-16T23:27:45.186Z,1.88
2023-04-16T23:30:12.625Z,2.10
2023-04-16T23:32:40.681Z,2.05
2023-04-16T23:35:09.839Z,2.13
2023-04-16T23:37:37.033Z,1.77
2023-04-16T23:40:04.963Z,1.90
2023-04-16T23:42:31.993Z,1.80
2023-04-16T23:44:59.084Z,1.60
2023-04-16T23:47:26.340Z,2.35
2023-04-16T23:49:53.320Z,2.10
2023-04-16T23:52:20.635Z,1.80
2023-04-16T23:54:47.792Z,1.75
2023-04-16T23:57:15.246Z,1.90
2023-04-16T23:59:42.279Z,1.80
